Tenterden, United Kingdom
Current Conditions -  °F | °C
As of 11:20 AM on Sunday 23 Nov 2014 (Local Time) from EGMD Reporting Station
Light Rain Light Rain  
Wind Chill: 52°   Ceiling: 400
Heat Index: 52°   Visibility: 4mi
Dew Point: 52°   Wind: 18mph
Humidity: 100%   Direction: 340°NNW
Pressure: 29.97"   Gusts: NA
Location:  51.07°N, 0.69°E
Report Text: EGMD 231120Z 34016KT 6000 -RA BKN004 BKN006 11/11 Q1015
Loading
Personal Weather Stations






























Interactive Weather Map New forecast layout! Learn more

10-Day Weather Forecast

Advertisements
Track Severe Weather on mobile